createdAt,value
2019-05-12T00:00:18.551Z,0
2019-05-12T00:01:19.945Z,0
2019-05-12T00:02:21.331Z,0
2019-05-12T00:03:22.734Z,0
2019-05-12T00:04:24.130Z,0
2019-05-12T00:05:27.791Z,0
2019-05-12T00:06:28.427Z,0
2019-05-12T00:07:28.594Z,0
2019-05-12T00:08:29.568Z,0
2019-05-12T00:09:30.980Z,0
2019-05-12T00:10:32.374Z,0
2019-05-12T00:11:33.760Z,0
2019-05-12T00:12:35.162Z,0
2019-05-12T00:13:38.313Z,0
2019-05-12T00:14:38.116Z,0
2019-05-12T00:15:39.364Z,0
2019-05-12T00:16:40.751Z,0
2019-05-12T00:17:42.156Z,0
2019-05-12T00:18:43.555Z,0
2019-05-12T00:19:44.963Z,0
2019-05-12T00:20:47.672Z,0
2019-05-12T00:21:48.310Z,0
2019-05-12T00:22:49.207Z,0
2019-05-12T00:23:50.439Z,0
2019-05-12T00:24:51.838Z,0
2019-05-12T00:25:53.245Z,0
2019-05-12T00:26:54.615Z,0
2019-05-12T00:27:58.408Z,0
2019-05-12T00:28:58.824Z,0
2019-05-12T00:29:58.722Z,0
2019-05-12T00:31:00.113Z,0
2019-05-12T00:32:01.494Z,0
2019-05-12T00:33:02.891Z,0
2019-05-12T00:34:04.286Z,0
2019-05-12T00:35:07.817Z,0
2019-05-12T00:36:08.004Z,0
2019-05-12T00:37:08.419Z,0
2019-05-12T00:38:09.782Z,0
2019-05-12T00:39:11.175Z,0
2019-05-12T00:40:12.558Z,0
2019-05-12T00:41:13.964Z,0
2019-05-12T00:42:15.362Z,0
2019-05-12T00:43:18.583Z,0
2019-05-12T00:44:18.491Z,0
2019-05-12T00:45:19.652Z,0
2019-05-12T00:46:21.039Z,0
2019-05-12T00:47:22.427Z,0
2019-05-12T00:48:23.809Z,0
2019-05-12T00:49:25.205Z,0
2019-05-12T00:50:28.620Z,0
2019-05-12T00:51:28.826Z,0
2019-05-12T00:52:29.310Z,0
2019-05-12T00:53:39.681Z,0
2019-05-12T00:54:32.052Z,0
2019-05-12T00:55:33.437Z,0
2019-05-12T00:56:34.833Z,0
2019-05-12T00:57:38.094Z,0
2019-05-12T00:58:38.244Z,0
2019-05-12T00:59:38.944Z,0
2019-05-12T01:00:41.152Z,0
2019-05-12T01:01:41.684Z,0
2019-05-12T01:02:43.078Z,0
2019-05-12T01:03:44.474Z,0
2019-05-12T01:04:45.855Z,0
2019-05-12T01:05:48.549Z,0
2019-05-12T01:06:51.711Z,0
2019-05-12T01:07:51.265Z,0
2019-05-12T01:08:51.307Z,0
2019-05-12T01:09:52.706Z,0
2019-05-12T01:10:54.087Z,0
2019-05-12T01:11:55.486Z,0
2019-05-12T01:12:58.149Z,0
2019-05-12T01:13:58.382Z,0
2019-05-12T01:14:59.579Z,0
2019-05-12T01:16:00.965Z,0
2019-05-12T01:17:02.353Z,0
2019-05-12T01:18:03.756Z,0
2019-05-12T01:19:07.402Z,0
2019-05-12T01:20:08.690Z,0
2019-05-12T01:21:07.918Z,0
2019-05-12T01:22:09.195Z,0
2019-05-12T01:23:10.583Z,0
2019-05-12T01:24:11.981Z,0
2019-05-12T01:25:13.379Z,0
2019-05-12T01:26:14.773Z,0
2019-05-12T01:27:17.973Z,0
2019-05-12T01:28:18.386Z,0
2019-05-12T01:29:18.925Z,0
2019-05-12T01:30:20.315Z,0
2019-05-12T01:31:21.704Z,0
2019-05-12T01:32:23.096Z,0
2019-05-12T01:33:24.504Z,0
2019-05-12T01:34:27.596Z,0
2019-05-12T01:35:28.167Z,0
2019-05-12T01:36:28.776Z,0
2019-05-12T01:37:29.966Z,0
2019-05-12T01:38:31.363Z,0
2019-05-12T01:39:32.746Z,0
2019-05-12T01:40:34.136Z,0
2019-05-12T01:41:35.521Z,0
2019-05-12T01:42:38.221Z,0
2019-05-12T01:43:38.326Z,0
2019-05-12T01:44:39.675Z,0
2019-05-12T01:45:41.077Z,0
2019-05-12T01:46:42.463Z,0
2019-05-12T01:47:43.851Z,0
2019-05-12T01:48:45.238Z,0
2019-05-12T01:49:48.655Z,0
2019-05-12T01:50:47.987Z,0
2019-05-12T01:51:49.383Z,0
2019-05-12T01:52:50.770Z,0
2019-05-12T01:53:52.162Z,0
2019-05-12T01:54:53.557Z,0
2019-05-12T01:55:54.944Z,0
2019-05-12T01:56:58.595Z,0
2019-05-12T01:57:58.039Z,0
2019-05-12T01:58:59.059Z,0
2019-05-12T02:00:00.449Z,0
2019-05-12T02:01:03.094Z,0
2019-05-12T02:02:03.188Z,0
2019-05-12T02:03:04.574Z,0
2019-05-12T02:04:07.591Z,0
2019-05-12T02:05:08.511Z,0
2019-05-12T02:06:08.664Z,0
2019-05-12T02:07:10.046Z,0
2019-05-12T02:08:11.438Z,0
2019-05-12T02:09:12.826Z,0
2019-05-12T02:10:14.211Z,0
2019-05-12T02:11:18.095Z,0
2019-05-12T02:12:18.264Z,0
2019-05-12T02:13:18.364Z,0
2019-05-12T02:14:19.708Z,0
2019-05-12T02:15:21.099Z,0
2019-05-12T02:16:22.489Z,0
2019-05-12T02:17:23.877Z,0
2019-05-12T02:18:25.269Z,0
2019-05-12T02:19:28.249Z,0
2019-05-12T02:20:28.806Z,0
2019-05-12T02:21:29.391Z,0
2019-05-12T02:22:30.781Z,0
2019-05-12T02:23:32.174Z,0
2019-05-12T02:24:33.557Z,0
2019-05-12T02:25:34.977Z,0
2019-05-12T02:26:38.064Z,0
2019-05-12T02:27:38.316Z,0
2019-05-12T02:28:39.487Z,0
2019-05-12T02:29:40.410Z,0
2019-05-12T02:30:42.106Z,0
2019-05-12T02:31:43.173Z,0
2019-05-12T02:32:49.624Z,0
2019-05-12T02:33:45.909Z,0
2019-05-12T02:34:47.297Z,0
2019-05-12T02:35:48.679Z,0
2019-05-12T02:36:50.067Z,0
2019-05-12T02:37:51.464Z,0
2019-05-12T02:38:55.645Z,0
2019-05-12T02:39:55.564Z,0
2019-05-12T02:40:55.643Z,0
2019-05-12T02:41:57.820Z,0
2019-05-12T02:42:59.230Z,0
2019-05-12T02:44:00.620Z,0
2019-05-12T02:45:05.226Z,0
2019-05-12T02:46:04.838Z,0
2019-05-12T02:47:05.136Z,0
2019-05-12T02:48:06.097Z,0
2019-05-12T02:49:07.471Z,0
2019-05-12T02:50:08.860Z,0
2019-05-12T02:51:10.238Z,0
2019-05-12T02:52:11.631Z,0
2019-05-12T02:53:14.453Z,0
2019-05-12T02:54:14.495Z,0
2019-05-12T02:55:15.717Z,0
2019-05-12T02:56:17.102Z,0
2019-05-12T02:57:18.485Z,0
2019-05-12T02:58:19.893Z,0
2019-05-12T02:59:21.273Z,0
2019-05-12T03:00:24.214Z,0
2019-05-12T03:01:24.356Z,0
2019-05-12T03:02:25.352Z,0
2019-05-12T03:03:26.746Z,0
2019-05-12T03:04:28.161Z,0
2019-05-12T03:05:29.542Z,0
2019-05-12T03:06:30.937Z,0
2019-05-12T03:07:34.588Z,0
2019-05-12T03:08:34.798Z,0
2019-05-12T03:09:35.389Z,0
2019-05-12T03:10:36.386Z,0
2019-05-12T03:11:37.797Z,0
2019-05-12T03:12:39.168Z,0
2019-05-12T03:13:40.555Z,0
2019-05-12T03:14:44.637Z,0
2019-05-12T03:15:44.565Z,0
2019-05-12T03:16:45.337Z,0
2019-05-12T03:17:46.018Z,0
2019-05-12T03:18:47.411Z,0
2019-05-12T03:19:48.803Z,0
2019-05-12T03:20:50.181Z,0
2019-05-12T03:21:54.595Z,0
2019-05-12T03:22:55.130Z,0
2019-05-12T03:23:55.076Z,5
2019-05-12T03:25:07.812Z,5
2019-05-12T03:25:56.990Z,5
2019-05-12T03:26:58.408Z,5
2019-05-12T03:27:59.796Z,5
2019-05-12T03:29:01.188Z,5
2019-05-12T03:30:09.922Z,5
2019-05-12T03:31:07.919Z,5
2019-05-12T03:32:08.165Z,5
2019-05-12T03:33:09.222Z,10
2019-05-12T03:34:10.224Z,10
2019-05-12T03:35:09.688Z,10
2019-05-12T03:36:10.886Z,10
2019-05-12T03:37:17.197Z,10
2019-05-12T03:38:14.815Z,10
2019-05-12T03:39:15.216Z,10
2019-05-12T03:40:16.315Z,10
2019-05-12T03:41:17.701Z,15
2019-05-12T03:42:19.093Z,15
2019-05-12T03:43:20.474Z,15
2019-05-12T03:44:24.989Z,15
2019-05-12T03:45:25.133Z,15
2019-05-12T03:46:24.971Z,15
2019-05-12T03:47:25.942Z,15
2019-05-12T03:48:27.324Z,20
2019-05-12T03:49:28.709Z,20
2019-05-12T03:50:30.099Z,20
2019-05-12T03:51:34.718Z,20
2019-05-12T03:52:35.009Z,20
2019-05-12T03:53:35.180Z,20
2019-05-12T03:54:35.556Z,20
2019-05-12T03:55:41.842Z,20
2019-05-12T03:56:38.318Z,25
2019-05-12T03:57:39.719Z,25
2019-05-12T03:58:41.108Z,25
2019-05-12T03:59:44.805Z,25
2019-05-12T04:00:44.697Z,25
2019-05-12T04:01:45.458Z,25
2019-05-12T04:02:46.570Z,30
2019-05-12T04:03:47.951Z,30
2019-05-12T04:04:49.339Z,30
2019-05-12T04:05:50.728Z,30
2019-05-12T04:06:54.369Z,30
2019-05-12T04:07:54.679Z,35
2019-05-12T04:08:57.493Z,35
2019-05-12T04:09:56.181Z,35
2019-05-12T04:10:57.574Z,35
2019-05-12T04:11:58.964Z,35
2019-05-12T04:13:00.371Z,35
2019-05-12T04:14:01.760Z,35
2019-05-12T04:15:05.050Z,40
2019-05-12T04:16:05.040Z,40
2019-05-12T04:17:05.902Z,40
2019-05-12T04:18:07.280Z,45
2019-05-12T04:19:08.681Z,45
2019-05-12T04:20:10.079Z,45
2019-05-12T04:21:11.470Z,45
2019-05-12T04:22:15.173Z,50
2019-05-12T04:23:15.377Z,50
2019-05-12T04:24:15.574Z,50
2019-05-12T04:25:16.973Z,50
2019-05-12T04:26:18.376Z,50
2019-05-12T04:27:19.769Z,50
2019-05-12T04:28:24.338Z,55
2019-05-12T04:29:25.007Z,55
2019-05-12T04:30:25.023Z,55
2019-05-12T04:31:25.293Z,55
2019-05-12T04:32:26.590Z,55
2019-05-12T04:33:27.986Z,55
2019-05-12T04:34:29.378Z,60
2019-05-12T04:35:30.770Z,60
2019-05-12T04:36:35.188Z,60
2019-05-12T04:37:35.251Z,60
2019-05-12T04:38:35.499Z,65
2019-05-12T04:39:36.255Z,65
2019-05-12T04:40:37.665Z,65
2019-05-12T04:41:39.040Z,65
2019-05-12T04:42:40.432Z,70
2019-05-12T04:43:44.534Z,70
2019-05-12T04:44:44.814Z,70
2019-05-12T04:45:45.126Z,70
2019-05-12T04:46:45.893Z,70
2019-05-12T04:47:47.283Z,70
2019-05-12T04:48:48.673Z,75
2019-05-12T04:49:50.070Z,85
2019-05-12T04:50:54.651Z,90
2019-05-12T04:51:54.536Z,95
2019-05-12T04:52:54.885Z,95
2019-05-12T04:53:55.508Z,95
2019-05-12T04:54:56.902Z,105
2019-05-12T04:56:10.846Z,105
2019-05-12T04:56:59.647Z,115
2019-05-12T04:58:04.078Z,130
2019-05-12T04:59:04.819Z,125
2019-05-12T05:00:05.112Z,145
2019-05-12T05:01:06.303Z,150
2019-05-12T05:02:06.468Z,170
2019-05-12T05:03:07.857Z,190
2019-05-12T05:04:09.305Z,190
2019-05-12T05:05:10.724Z,160
2019-05-12T05:06:14.554Z,155
2019-05-12T05:07:15.045Z,150
2019-05-12T05:08:19.256Z,155
2019-05-12T05:09:16.177Z,160
2019-05-12T05:10:17.553Z,155
2019-05-12T05:11:18.951Z,140
2019-05-12T05:12:20.339Z,130
2019-05-12T05:13:24.278Z,125
2019-05-12T05:14:24.729Z,125
2019-05-12T05:15:24.937Z,120
2019-05-12T05:16:25.817Z,120
2019-05-12T05:17:27.216Z,120
2019-05-12T05:18:28.617Z,125
2019-05-12T05:19:30.004Z,125
2019-05-12T05:20:31.402Z,125
2019-05-12T05:21:34.376Z,135
2019-05-12T05:22:34.170Z,130
2019-05-12T05:23:35.562Z,135
2019-05-12T05:24:36.954Z,135
2019-05-12T05:25:38.365Z,150
2019-05-12T05:26:39.756Z,145
2019-05-12T05:27:41.144Z,145
2019-05-12T05:28:43.536Z,160
2019-05-12T05:29:43.895Z,215
2019-05-12T05:30:45.288Z,220
2019-05-12T05:31:46.679Z,200
2019-05-12T05:32:48.084Z,180
2019-05-12T05:33:50.263Z,150
2019-05-12T05:34:55.737Z,150
2019-05-12T05:35:54.127Z,165
2019-05-12T05:36:59.426Z,185
2019-05-12T05:37:54.959Z,205
2019-05-12T05:39:01.455Z,285
2019-05-12T05:39:57.709Z,270
2019-05-12T05:40:59.668Z,210
2019-05-12T05:42:00.467Z,185
2019-05-12T05:43:03.695Z,170
2019-05-12T05:44:03.319Z,160
2019-05-12T05:45:04.884Z,155
2019-05-12T05:46:07.827Z,175
2019-05-12T05:47:07.308Z,200
2019-05-12T05:48:10.233Z,225
2019-05-12T05:49:10.104Z,295
2019-05-12T05:50:13.379Z,345
2019-05-12T05:51:13.654Z,320
2019-05-12T05:52:14.226Z,275
2019-05-12T05:53:19.508Z,210
2019-05-12T05:54:17.012Z,165
2019-05-12T05:55:20.160Z,195
2019-05-12T05:56:19.764Z,190
2019-05-12T05:57:25.712Z,175
2019-05-12T05:58:25.915Z,220
2019-05-12T05:59:31.159Z,270
2019-05-12T06:00:26.388Z,225
2019-05-12T06:01:26.637Z,205
2019-05-12T06:02:31.837Z,215
2019-05-12T06:03:29.401Z,225
2019-05-12T06:04:30.797Z,305
2019-05-12T06:05:34.031Z,290
2019-05-12T06:06:34.173Z,265
2019-05-12T06:07:38.958Z,270
2019-05-12T06:08:36.279Z,355
2019-05-12T06:09:37.683Z,370
2019-05-12T06:10:40.339Z,455
2019-05-12T06:11:40.434Z,365
2019-05-12T06:12:47.909Z,245
2019-05-12T06:13:44.316Z,270
2019-05-12T06:14:46.630Z,385
2019-05-12T06:15:45.922Z,600
2019-05-12T06:16:47.329Z,890
2019-05-12T06:17:48.728Z,1065
2019-05-12T06:18:50.140Z,920
2019-05-12T06:19:53.694Z,535
2019-05-12T06:20:54.120Z,870
2019-05-12T06:21:54.281Z,905
2019-05-12T06:22:57.624Z,1155
2019-05-12T06:23:57.059Z,1200
2019-05-12T06:24:58.954Z,1310
2019-05-12T06:25:59.845Z,1360
2019-05-12T06:27:08.377Z,1365
2019-05-12T06:28:04.559Z,1335
2019-05-12T06:29:04.486Z,1335
2019-05-12T06:30:06.348Z,1335
2019-05-12T06:31:06.759Z,1335
2019-05-12T06:32:10.736Z,1305
2019-05-12T06:33:09.521Z,1320
2019-05-12T06:34:15.176Z,1295
2019-05-12T06:35:14.933Z,1320
2019-05-12T06:36:21.732Z,1325
2019-05-12T06:37:17.083Z,1355
2019-05-12T06:38:16.449Z,1405
2019-05-12T06:39:20.570Z,1415
2019-05-12T06:40:19.256Z,1425
2019-05-12T06:41:21.315Z,1405
2019-05-12T06:42:24.054Z,1400
2019-05-12T06:43:24.374Z,1355
2019-05-12T06:44:24.772Z,1365
2019-05-12T06:45:28.360Z,1245
2019-05-12T06:46:27.550Z,1335
2019-05-12T06:47:28.960Z,1395
2019-05-12T06:48:30.445Z,1390
2019-05-12T06:49:33.736Z,1395
2019-05-12T06:50:36.943Z,1365
2019-05-12T06:51:34.571Z,1345
2019-05-12T06:52:38.686Z,1355
2019-05-12T06:53:37.337Z,1370
2019-05-12T06:54:42.541Z,1385
2019-05-12T06:55:40.175Z,1375
2019-05-12T06:56:43.406Z,1390
2019-05-12T06:57:45.923Z,1420
2019-05-12T06:58:44.383Z,1385
2019-05-12T06:59:50.900Z,1425
2019-05-12T07:00:47.117Z,1455
2019-05-12T07:01:49.791Z,1445
2019-05-12T07:02:52.629Z,1470
2019-05-12T07:03:52.926Z,1440
2019-05-12T07:04:57.317Z,1360
2019-05-12T07:05:54.054Z,1315
2019-05-12T07:07:00.434Z,1295
2019-05-12T07:07:56.848Z,1390
2019-05-12T07:09:06.418Z,1245
2019-05-12T07:10:02.632Z,1460
2019-05-12T07:11:03.133Z,1555
2019-05-12T07:12:06.638Z,1570
2019-05-12T07:13:05.639Z,1545
2019-05-12T07:14:12.927Z,1440
2019-05-12T07:15:06.758Z,1480
2019-05-12T07:16:10.124Z,1445
2019-05-12T07:17:09.532Z,1470
2019-05-12T07:18:13.477Z,1315
2019-05-12T07:19:20.642Z,1220
2019-05-12T07:20:14.762Z,1405
2019-05-12T07:21:19.438Z,1320
2019-05-12T07:22:21.895Z,1405
2019-05-12T07:23:19.804Z,1345
2019-05-12T07:24:19.248Z,1350
2019-05-12T07:25:24.607Z,1250
2019-05-12T07:26:23.470Z,1245
2019-05-12T07:27:35.767Z,1265
2019-05-12T07:28:24.813Z,1265
2019-05-12T07:29:26.231Z,1250
2019-05-12T07:30:27.639Z,1335
2019-05-12T07:31:29.063Z,1125
2019-05-12T07:32:30.485Z,1525
2019-05-12T07:33:32.786Z,1680
2019-05-12T07:34:33.411Z,1770
2019-05-12T07:35:34.671Z,1660
2019-05-12T07:36:36.079Z,1780
2019-05-12T07:37:37.496Z,1600
2019-05-12T07:38:38.919Z,1780
2019-05-12T07:39:45.395Z,1845
2019-05-12T07:40:41.714Z,865
2019-05-12T07:41:51.006Z,1900
2019-05-12T07:42:44.514Z,1845
2019-05-12T07:43:50.481Z,1830
2019-05-12T07:44:47.311Z,1805
2019-05-12T07:45:53.201Z,1790
2019-05-12T07:46:50.136Z,1705
2019-05-12T07:47:51.560Z,1595
2019-05-12T07:48:54.236Z,1545
2019-05-12T07:49:54.375Z,1465
2019-05-12T07:51:00.465Z,1400
2019-05-12T07:51:57.428Z,1390
2019-05-12T07:52:58.819Z,1370
2019-05-12T07:54:00.231Z,1355
2019-05-12T07:55:04.120Z,1340
2019-05-12T07:56:04.147Z,1340
2019-05-12T07:57:11.962Z,1360
2019-05-12T07:58:14.020Z,1410
2019-05-12T07:59:07.183Z,1435
2019-05-12T08:00:11.479Z,1460
2019-05-12T08:01:09.997Z,1520
2019-05-12T08:02:11.423Z,1585
2019-05-12T08:03:20.946Z,1610
2019-05-12T08:04:14.413Z,1625
2019-05-12T08:05:20.162Z,1540
2019-05-12T08:06:17.968Z,1600
2019-05-12T08:07:19.836Z,1625
2019-05-12T08:08:20.809Z,1600
2019-05-12T08:09:24.202Z,1705
2019-05-12T08:10:23.615Z,1845
2019-05-12T08:11:28.760Z,1950
2019-05-12T08:12:26.410Z,1955
2019-05-12T08:13:31.123Z,1975
2019-05-12T08:14:29.495Z,1965
2019-05-12T08:15:30.620Z,1920
2019-05-12T08:16:36.215Z,1915
2019-05-12T08:17:33.696Z,1895
2019-05-12T08:18:36.951Z,1905
2019-05-12T08:19:36.174Z,1925
2019-05-12T08:20:37.584Z,1985
2019-05-12T08:21:43.529Z,2000
2019-05-12T08:22:40.939Z,1995
2019-05-12T08:23:44.157Z,2005
2019-05-12T08:24:45.826Z,2050
2019-05-12T08:25:44.530Z,2000
2019-05-12T08:26:49.661Z,1905
2019-05-12T08:27:50.268Z,2070
2019-05-12T08:28:48.715Z,2125
2019-05-12T08:29:54.467Z,2220
2019-05-12T08:30:54.313Z,2240
2019-05-12T08:31:54.816Z,2255
2019-05-12T08:33:02.044Z,2265
2019-05-12T08:33:55.666Z,2260
2019-05-12T08:34:57.094Z,2260
2019-05-12T08:36:05.452Z,2280
2019-05-12T08:36:59.908Z,2315
2019-05-12T08:38:03.634Z,2365
2019-05-12T08:39:05.848Z,2360
2019-05-12T08:40:07.538Z,2300
2019-05-12T08:41:05.516Z,2150
2019-05-12T08:42:06.946Z,2275
2019-05-12T08:43:10.330Z,2265
2019-05-12T08:44:09.762Z,2240
2019-05-12T08:45:15.199Z,2255
2019-05-12T08:46:15.505Z,2270
2019-05-12T08:47:15.174Z,2220
2019-05-12T08:48:21.263Z,2295
2019-05-12T08:49:16.903Z,2345
2019-05-12T08:50:25.583Z,2400
2019-05-12T08:51:20.122Z,2120
2019-05-12T08:52:23.430Z,2330
2019-05-12T08:53:23.529Z,2435
2019-05-12T08:54:23.873Z,2425
2019-05-12T08:55:31.179Z,2450
2019-05-12T08:56:26.681Z,2480
2019-05-12T08:57:32.569Z,2475
2019-05-12T08:58:33.648Z,2485
2019-05-12T08:59:30.875Z,2520
2019-05-12T09:00:33.989Z,2525
2019-05-12T09:01:34.327Z,2555
2019-05-12T09:02:35.079Z,2545
2019-05-12T09:03:36.498Z,2555
2019-05-12T09:04:45.400Z,2570
2019-05-12T09:05:39.312Z,2560
2019-05-12T09:06:40.738Z,2560
2019-05-12T09:07:43.557Z,2575
2019-05-12T09:08:45.152Z,2590
2019-05-12T09:09:44.934Z,2570
2019-05-12T09:10:46.352Z,2535
2019-05-12T09:11:47.787Z,2525
2019-05-12T09:12:49.223Z,2510
2019-05-12T09:13:54.351Z,2530
2019-05-12T09:14:54.443Z,1925
2019-05-12T09:15:54.147Z,1860
2019-05-12T09:17:02.803Z,1825
2019-05-12T09:17:56.998Z,1770
2019-05-12T09:18:57.570Z,1675
2019-05-12T09:20:05.899Z,1615
2019-05-12T09:21:00.392Z,1745
2019-05-12T09:22:05.447Z,1855
2019-05-12T09:23:04.703Z,1885
2019-05-12T09:24:04.650Z,1980
2019-05-12T09:25:08.251Z,2010
2019-05-12T09:26:07.447Z,2060
2019-05-12T09:27:09.085Z,2065
2019-05-12T09:28:10.259Z,2100
2019-05-12T09:29:13.810Z,2135
2019-05-12T09:30:14.211Z,2130
2019-05-12T09:31:19.271Z,2120
2019-05-12T09:32:15.862Z,2150
2019-05-12T09:33:21.596Z,2090
2019-05-12T09:34:18.674Z,2100
2019-05-12T09:35:20.106Z,2080
2019-05-12T09:36:21.788Z,2020
2019-05-12T09:37:24.048Z,2030
2019-05-12T09:38:26.227Z,2035
2019-05-12T09:39:25.665Z,2195
2019-05-12T09:40:27.093Z,2225
2019-05-12T09:41:28.515Z,2230
2019-05-12T09:42:30.160Z,2205
2019-05-12T09:43:31.336Z,2165
2019-05-12T09:44:34.093Z,2130
2019-05-12T09:45:34.149Z,2095
2019-05-12T09:46:37.596Z,2065
2019-05-12T09:47:36.957Z,2035
2019-05-12T09:48:39.123Z,2025
2019-05-12T09:49:39.823Z,1975
2019-05-12T09:50:44.104Z,1965
2019-05-12T09:51:45.715Z,2005
2019-05-12T09:52:44.106Z,2020
2019-05-12T09:53:50.959Z,2005
2019-05-12T09:54:46.749Z,2060
2019-05-12T09:55:48.174Z,1910
2019-05-12T09:56:50.069Z,1380
2019-05-12T09:57:50.971Z,745
2019-05-12T09:59:01.593Z,350
2019-05-12T09:59:58.007Z,300
2019-05-12T10:00:55.367Z,325
2019-05-12T10:01:56.790Z,320
2019-05-12T10:03:00.655Z,295
2019-05-12T10:03:59.587Z,350
2019-05-12T10:05:01.135Z,290
2019-05-12T10:06:03.675Z,260
2019-05-12T10:07:03.958Z,170
2019-05-12T10:08:05.200Z,165
2019-05-12T10:09:08.791Z,160
2019-05-12T10:10:07.959Z,160
2019-05-12T10:11:10.286Z,155
2019-05-12T10:12:10.748Z,155
2019-05-12T10:13:13.681Z,155
2019-05-12T10:14:13.999Z,155
2019-05-12T10:15:18.596Z,155
2019-05-12T10:16:16.270Z,150
2019-05-12T10:17:20.285Z,150
2019-05-12T10:18:19.029Z,145
2019-05-12T10:19:20.447Z,145
2019-05-12T10:20:24.064Z,145
2019-05-12T10:21:23.797Z,145
2019-05-12T10:22:24.633Z,140
2019-05-12T10:23:27.442Z,140
2019-05-12T10:24:31.783Z,145
2019-05-12T10:25:30.549Z,140
2019-05-12T10:26:30.158Z,145
2019-05-12T10:27:34.082Z,140
2019-05-12T10:28:32.942Z,140
2019-05-12T10:29:34.357Z,140
2019-05-12T10:30:35.767Z,140
2019-05-12T10:31:39.382Z,140
2019-05-12T10:32:38.530Z,140
2019-05-12T10:33:39.936Z,140
2019-05-12T10:34:41.350Z,140
2019-05-12T10:35:43.872Z,145
2019-05-12T10:36:44.852Z,150
2019-05-12T10:37:47.235Z,145
2019-05-12T10:38:46.846Z,145
2019-05-12T10:39:48.268Z,145
2019-05-12T10:40:49.677Z,140
2019-05-12T10:41:51.080Z,140
2019-05-12T10:42:53.517Z,135
2019-05-12T10:43:57.533Z,135
2019-05-12T10:44:56.670Z,135
2019-05-12T10:45:56.613Z,135
2019-05-12T10:46:58.021Z,135
2019-05-12T10:47:59.427Z,135
2019-05-12T10:49:00.822Z,135
2019-05-12T10:50:02.230Z,135
2019-05-12T10:51:03.647Z,135
2019-05-12T10:52:05.053Z,130
2019-05-12T10:53:10.032Z,130
2019-05-12T10:54:12.512Z,170
2019-05-12T10:55:09.199Z,230
2019-05-12T10:56:10.601Z,275
2019-05-12T10:57:13.975Z,280
2019-05-12T10:58:14.528Z,250
2019-05-12T10:59:27.959Z,235
2019-05-12T11:00:19.830Z,245
2019-05-12T11:01:17.488Z,290
2019-05-12T11:02:20.301Z,290
2019-05-12T11:03:20.275Z,245
2019-05-12T11:04:25.058Z,245
2019-05-12T11:05:25.824Z,280
2019-05-12T11:06:24.509Z,300
2019-05-12T11:07:28.189Z,260
2019-05-12T11:08:27.174Z,255
2019-05-12T11:09:31.645Z,280
2019-05-12T11:10:29.940Z,455
2019-05-12T11:11:32.841Z,1180
2019-05-12T11:12:33.331Z,2005
2019-05-12T11:13:34.091Z,2315
2019-05-12T11:14:35.495Z,2310
2019-05-12T11:15:39.429Z,2195
2019-05-12T11:16:38.281Z,2300
2019-05-12T11:17:40.294Z,2485
2019-05-12T11:18:43.545Z,2475
2019-05-12T11:19:47.202Z,2490
2019-05-12T11:20:45.066Z,2460
2019-05-12T11:21:45.203Z,2450
2019-05-12T11:22:46.611Z,2025
2019-05-12T11:23:48.017Z,2410
2019-05-12T11:24:52.416Z,2410
2019-05-12T11:25:53.193Z,2400
2019-05-12T11:26:53.677Z,2410
2019-05-12T11:27:54.871Z,2425
2019-05-12T11:28:55.020Z,2400
2019-05-12T11:29:56.432Z,2410
2019-05-12T11:30:57.848Z,2380
2019-05-12T11:31:59.262Z,2355
2019-05-12T11:33:00.678Z,2355
2019-05-12T11:34:04.647Z,2395
2019-05-12T11:35:04.145Z,2365
2019-05-12T11:36:04.843Z,2340
2019-05-12T11:37:06.260Z,2340
2019-05-12T11:38:07.675Z,2370
2019-05-12T11:39:09.098Z,2340
2019-05-12T11:40:10.529Z,2290
2019-05-12T11:41:16.122Z,2235
2019-05-12T11:42:13.690Z,2210
2019-05-12T11:43:14.709Z,2145
2019-05-12T11:44:16.117Z,2080
2019-05-12T11:45:17.547Z,2035
2019-05-12T11:46:18.948Z,2085
2019-05-12T11:47:24.234Z,1955
2019-05-12T11:48:23.333Z,2115
2019-05-12T11:49:26.373Z,2100
2019-05-12T11:50:24.493Z,2040
2019-05-12T11:51:28.890Z,1950
2019-05-12T11:52:27.270Z,1985
2019-05-12T11:53:30.810Z,2080
2019-05-12T11:54:30.043Z,2130
2019-05-12T11:55:31.861Z,2180
2019-05-12T11:56:33.612Z,2025
2019-05-12T11:57:34.228Z,2195
2019-05-12T11:58:35.632Z,2200
2019-05-12T11:59:37.051Z,2210
2019-05-12T12:00:38.452Z,2280
2019-05-12T12:01:44.882Z,2310
2019-05-12T12:02:43.639Z,2180
2019-05-12T12:03:44.032Z,2070
2019-05-12T12:04:43.984Z,2065
2019-05-12T12:05:45.387Z,2165
2019-05-12T12:06:46.799Z,2150
2019-05-12T12:07:51.677Z,2270
2019-05-12T12:08:49.650Z,2130
2019-05-12T12:09:56.223Z,2015
2019-05-12T12:10:53.911Z,1940
2019-05-12T12:11:56.696Z,1805
2019-05-12T12:12:55.088Z,1835
2019-05-12T12:14:00.436Z,1845
2019-05-12T12:14:57.860Z,1550
2019-05-12T12:16:00.557Z,785
2019-05-12T12:17:00.659Z,360
2019-05-12T12:18:03.966Z,265
2019-05-12T12:19:05.817Z,215
2019-05-12T12:20:04.811Z,180
2019-05-12T12:21:07.700Z,150
2019-05-12T12:22:07.591Z,140
2019-05-12T12:23:11.067Z,135
2019-05-12T12:24:10.379Z,130
2019-05-12T12:25:13.589Z,150
2019-05-12T12:26:13.328Z,145
2019-05-12T12:27:14.562Z,140
2019-05-12T12:28:15.968Z,140
2019-05-12T12:29:17.362Z,140
2019-05-12T12:30:19.874Z,145
2019-05-12T12:31:20.148Z,135
2019-05-12T12:32:23.159Z,140
2019-05-12T12:33:23.489Z,145
2019-05-12T12:34:29.933Z,145
2019-05-12T12:35:25.687Z,145
2019-05-12T12:36:27.101Z,145
2019-05-12T12:37:28.524Z,145
2019-05-12T12:38:29.939Z,160
2019-05-12T12:39:31.343Z,150
2019-05-12T12:40:32.777Z,140
2019-05-12T12:41:34.211Z,135
2019-05-12T12:42:38.518Z,125
2019-05-12T12:43:36.973Z,115
2019-05-12T12:44:38.386Z,115
2019-05-12T12:45:40.472Z,115
2019-05-12T12:46:41.139Z,130
2019-05-12T12:47:46.701Z,115
2019-05-12T12:48:44.041Z,105
2019-05-12T12:49:48.989Z,105
2019-05-12T12:50:46.667Z,110
2019-05-12T12:51:48.066Z,130
2019-05-12T12:52:49.475Z,145
2019-05-12T12:53:50.888Z,140
2019-05-12T12:54:54.184Z,130
2019-05-12T12:55:53.761Z,120
2019-05-12T12:56:55.038Z,110
2019-05-12T12:57:56.455Z,105
2019-05-12T12:59:01.917Z,105
2019-05-12T12:59:59.242Z,105
2019-05-12T13:01:00.659Z,95
2019-05-12T13:02:05.801Z,105
2019-05-12T13:03:03.739Z,100
2019-05-12T13:04:05.172Z,105
2019-05-12T13:05:06.158Z,110
2019-05-12T13:06:07.576Z,105
2019-05-12T13:07:08.979Z,105
2019-05-12T13:08:10.392Z,100
2019-05-12T13:09:18.519Z,95
2019-05-12T13:10:14.300Z,95
2019-05-12T13:11:14.762Z,95
2019-05-12T13:12:19.489Z,90
2019-05-12T13:13:17.255Z,90
2019-05-12T13:14:18.669Z,85
2019-05-12T13:15:21.079Z,85
2019-05-12T13:16:23.514Z,80
2019-05-12T13:17:28.959Z,80
2019-05-12T13:18:30.358Z,75
2019-05-12T13:19:25.568Z,75
2019-05-12T13:20:26.965Z,75
2019-05-12T13:21:28.376Z,75
2019-05-12T13:22:29.953Z,75
2019-05-12T13:23:38.013Z,75
2019-05-12T13:24:33.565Z,80
2019-05-12T13:25:38.664Z,75
2019-05-12T13:26:35.295Z,75
2019-05-12T13:27:36.998Z,80
2019-05-12T13:28:38.083Z,85
2019-05-12T13:29:39.870Z,90
2019-05-12T13:30:46.256Z,90
2019-05-12T13:31:46.489Z,90
2019-05-12T13:32:44.187Z,95
2019-05-12T13:33:49.304Z,95
2019-05-12T13:34:46.340Z,95
2019-05-12T13:35:50.347Z,90
2019-05-12T13:36:49.122Z,85
2019-05-12T13:37:55.681Z,80
2019-05-12T13:38:51.905Z,75
2019-05-12T13:39:56.839Z,70
2019-05-12T13:40:54.677Z,65
2019-05-12T13:42:00.072Z,65
2019-05-12T13:42:57.463Z,65
2019-05-12T13:44:00.019Z,60
2019-05-12T13:45:00.239Z,65
2019-05-12T13:46:01.636Z,65
2019-05-12T13:47:03.404Z,65
2019-05-12T13:48:04.414Z,65
2019-05-12T13:49:05.825Z,65
2019-05-12T13:50:07.233Z,65
2019-05-12T13:51:12.597Z,65
2019-05-12T13:52:10.011Z,65
2019-05-12T13:53:13.690Z,65
2019-05-12T13:54:14.301Z,65
2019-05-12T13:55:14.156Z,65
2019-05-12T13:56:19.313Z,70
2019-05-12T13:57:16.918Z,65
2019-05-12T13:58:18.357Z,65
2019-05-12T13:59:21.189Z,65
2019-05-12T14:00:21.110Z,65
2019-05-12T14:01:24.694Z,65
2019-05-12T14:02:23.872Z,65
2019-05-12T14:03:27.832Z,65
2019-05-12T14:04:27.787Z,60
2019-05-12T14:05:27.997Z,60
2019-05-12T14:06:32.177Z,60
2019-05-12T14:07:30.767Z,60
2019-05-12T14:08:34.147Z,60
2019-05-12T14:09:34.335Z,60
2019-05-12T14:10:37.381Z,60
2019-05-12T14:11:36.275Z,60
2019-05-12T14:12:37.682Z,60
2019-05-12T14:13:39.095Z,55
2019-05-12T14:14:40.487Z,55
2019-05-12T14:15:44.090Z,55